NSZ4513 ESSA-EDDH
Flight info
| Callsign | NSZ4513 |
|---|---|
| Flight time | N/A |
| Altitude | 36000 |
| Route | NOSLI N850 ABAMA DCT GIMRU T503 MICOS/N0391F280 N850 BOGMU BOGMU3S |
| Aircraft | B738/M-SDE2E3FGHIRWXY/LB1 |
Departure
| Time | 2026-05-05 05:01 |
|---|---|
| Airport | Stockholm-Arlanda Airport (ESSA) |
Arrival
| Time | N/A |
|---|---|
| Airport | Hamburg Helmut Schmidt Airport (EDDH) |
| Time | Latitude | Longitude | Altitude | Speed | Heading |
|---|---|---|---|---|---|
| 2026-05-05 04:48 | 59.64722 | 17.92675 | 110 ft | 0 kts | 28° |
| 2026-05-05 04:56 | 59.64719 | 17.92672 | 111 ft | 3 kts | 28° |
| 2026-05-05 04:56 | 59.64701 | 17.92652 | 110 ft | 4 kts | 19° |
| 2026-05-05 04:56 | 59.64676 | 17.92648 | 110 ft | 4 kts | 332° |
| 2026-05-05 04:56 | 59.64662 | 17.92673 | 110 ft | 0 kts | 301° |
| 2026-05-05 04:58 | 59.64662 | 17.92672 | 110 ft | 0 kts | 301° |
| 2026-05-05 04:58 | 59.64673 | 17.92628 | 110 ft | 9 kts | 291° |
| 2026-05-05 04:59 | 59.64701 | 17.92444 | 110 ft | 17 kts | 286° |
| 2026-05-05 04:59 | 59.64701 | 17.92219 | 110 ft | 17 kts | 220° |
| 2026-05-05 04:59 | 59.64590 | 17.92163 | 111 ft | 16 kts | 190° |
| 2026-05-05 04:59 | 59.64479 | 17.92124 | 112 ft | 16 kts | 190° |
| 2026-05-05 05:00 | 59.64414 | 17.92011 | 111 ft | 13 kts | 257° |
| 2026-05-05 05:00 | 59.64409 | 17.91833 | 109 ft | 13 kts | 280° |
| 2026-05-05 05:00 | 59.64428 | 17.91650 | 106 ft | 13 kts | 282° |
| 2026-05-05 05:00 | 59.64465 | 17.91592 | 108 ft | 9 kts | 6° |
| 2026-05-05 05:01 | 59.64644 | 17.91655 | 110 ft | 58 kts | 10° |
| 2026-05-05 05:01 | 59.65291 | 17.91890 | 104 ft | 128 kts | 10° |
| 2026-05-05 05:01 | 59.66342 | 17.92267 | 298 ft | 168 kts | 10° |
| 2026-05-05 05:01 | 59.67465 | 17.92666 | 1341 ft | 159 kts | 6° |
| 2026-05-05 05:02 | 59.68536 | 17.92482 | 2132 ft | 163 kts | 329° |
| 2026-05-05 05:02 | 59.69269 | 17.90597 | 2625 ft | 187 kts | 285° |
| 2026-05-05 05:02 | 59.69272 | 17.87940 | 3285 ft | 199 kts | 267° |
| 2026-05-05 05:02 | 59.69125 | 17.85173 | 4105 ft | 202 kts | 266° |
| 2026-05-05 05:03 | 59.69002 | 17.82428 | 5093 ft | 198 kts | 266° |
| 2026-05-05 05:03 | 59.68894 | 17.79685 | 5949 ft | 201 kts | 266° |
| 2026-05-05 05:03 | 59.68695 | 17.76909 | 6695 ft | 210 kts | 256° |
| 2026-05-05 05:03 | 59.68215 | 17.73973 | 7000 ft | 237 kts | 253° |
| 2026-05-05 05:04 | 59.67693 | 17.70818 | 7750 ft | 244 kts | 254° |
| 2026-05-05 05:04 | 59.67081 | 17.67685 | 8744 ft | 246 kts | 241° |
| 2026-05-05 05:04 | 59.65904 | 17.65215 | 9753 ft | 252 kts | 223° |
| 2026-05-05 05:04 | 59.64289 | 17.63580 | 10368 ft | 275 kts | 207° |
| 2026-05-05 05:05 | 59.62370 | 17.62358 | 10571 ft | 303 kts | 205° |
| 2026-05-05 05:05 | 59.60285 | 17.61125 | 10964 ft | 320 kts | 204° |
| 2026-05-05 05:05 | 59.58136 | 17.59862 | 11714 ft | 324 kts | 205° |
| 2026-05-05 05:05 | 59.55978 | 17.58571 | 12561 ft | 324 kts | 205° |
| 2026-05-05 05:06 | 59.53817 | 17.57261 | 13444 ft | 325 kts | 206° |
| 2026-05-05 05:06 | 59.51650 | 17.55927 | 14184 ft | 327 kts | 207° |
| 2026-05-05 05:06 | 59.49490 | 17.54487 | 14896 ft | 329 kts | 208° |
| 2026-05-05 05:06 | 59.47321 | 17.52985 | 15600 ft | 332 kts | 208° |
| 2026-05-05 05:07 | 59.45134 | 17.51462 | 16309 ft | 335 kts | 208° |
| 2026-05-05 05:07 | 59.42929 | 17.49933 | 17005 ft | 338 kts | 208° |
| 2026-05-05 05:07 | 59.40698 | 17.48394 | 17696 ft | 341 kts | 207° |
| 2026-05-05 05:07 | 59.38445 | 17.46847 | 18338 ft | 344 kts | 207° |
| 2026-05-05 05:08 | 59.36172 | 17.45293 | 18937 ft | 347 kts | 207° |
| 2026-05-05 05:08 | 59.33882 | 17.43732 | 19531 ft | 350 kts | 207° |
| 2026-05-05 05:08 | 59.31572 | 17.42161 | 20119 ft | 353 kts | 207° |
| 2026-05-05 05:08 | 59.29242 | 17.40579 | 20643 ft | 356 kts | 207° |
| 2026-05-05 05:09 | 59.26923 | 17.39006 | 21153 ft | 360 kts | 207° |
| 2026-05-05 05:09 | 59.24544 | 17.37395 | 21686 ft | 363 kts | 207° |
| 2026-05-05 05:09 | 59.22148 | 17.35777 | 22276 ft | 366 kts | 207° |
| 2026-05-05 05:09 | 59.19739 | 17.34153 | 22802 ft | 368 kts | 207° |
| 2026-05-05 05:10 | 59.17307 | 17.32515 | 23325 ft | 371 kts | 207° |
| 2026-05-05 05:10 | 59.14854 | 17.30865 | 23756 ft | 374 kts | 207° |
| 2026-05-05 05:10 | 59.12391 | 17.29210 | 24197 ft | 376 kts | 207° |
| 2026-05-05 05:10 | 59.09909 | 17.27545 | 24632 ft | 378 kts | 207° |
| 2026-05-05 05:11 | 59.07456 | 17.25712 | 25043 ft | 374 kts | 214° |
| 2026-05-05 05:11 | 59.05353 | 17.22878 | 25446 ft | 367 kts | 225° |
| 2026-05-05 05:11 | 59.03398 | 17.19690 | 25873 ft | 368 kts | 226° |
| 2026-05-05 05:11 | 59.01435 | 17.16466 | 26179 ft | 372 kts | 226° |
| 2026-05-05 05:12 | 58.99451 | 17.13215 | 26498 ft | 376 kts | 225° |
| 2026-05-05 05:12 | 58.97440 | 17.09943 | 26892 ft | 378 kts | 225° |
| 2026-05-05 05:12 | 58.95419 | 17.06677 | 27305 ft | 379 kts | 225° |
| 2026-05-05 05:12 | 58.93383 | 17.03402 | 27660 ft | 382 kts | 225° |
| 2026-05-05 05:13 | 58.91331 | 17.00112 | 28017 ft | 384 kts | 225° |
| 2026-05-05 05:13 | 58.89268 | 16.96814 | 28364 ft | 386 kts | 225° |
| 2026-05-05 05:13 | 58.87188 | 16.93495 | 28710 ft | 388 kts | 225° |
| 2026-05-05 05:13 | 58.85104 | 16.90175 | 29116 ft | 388 kts | 225° |
| 2026-05-05 05:14 | 58.83023 | 16.86869 | 29653 ft | 386 kts | 225° |
| 2026-05-05 05:14 | 58.80955 | 16.83591 | 30145 ft | 383 kts | 225° |
| 2026-05-05 05:14 | 58.78898 | 16.80331 | 30497 ft | 382 kts | 225° |
| 2026-05-05 05:14 | 58.76843 | 16.77076 | 30772 ft | 384 kts | 225° |
| 2026-05-05 05:15 | 58.74768 | 16.73794 | 31046 ft | 386 kts | 225° |
| 2026-05-05 05:15 | 58.72698 | 16.70527 | 31472 ft | 384 kts | 225° |
| 2026-05-05 05:15 | 58.70640 | 16.67288 | 31924 ft | 381 kts | 225° |
| 2026-05-05 05:15 | 58.68594 | 16.64069 | 32322 ft | 379 kts | 225° |
| 2026-05-05 05:16 | 58.66551 | 16.60857 | 32664 ft | 379 kts | 225° |
| 2026-05-05 05:16 | 58.64513 | 16.57658 | 33027 ft | 378 kts | 225° |
| 2026-05-05 05:16 | 58.62476 | 16.54469 | 33414 ft | 377 kts | 225° |
| 2026-05-05 05:16 | 58.60450 | 16.51303 | 33779 ft | 376 kts | 225° |
| 2026-05-05 05:17 | 58.58423 | 16.48142 | 34057 ft | 376 kts | 224° |
| 2026-05-05 05:17 | 58.56393 | 16.44978 | 34275 ft | 377 kts | 224° |
| 2026-05-05 05:17 | 58.54351 | 16.41800 | 34437 ft | 378 kts | 224° |
| 2026-05-05 05:17 | 58.52302 | 16.38615 | 34606 ft | 381 kts | 224° |
| 2026-05-05 05:18 | 58.50244 | 16.35421 | 34787 ft | 382 kts | 224° |
| 2026-05-05 05:18 | 58.48873 | 16.33295 | 34912 ft | 384 kts | 224° |
| 2026-05-05 05:18 | 58.46794 | 16.30078 | 35075 ft | 386 kts | 224° |
| 2026-05-05 05:18 | 58.44705 | 16.26849 | 35283 ft | 386 kts | 224° |
| 2026-05-05 05:19 | 58.42613 | 16.23622 | 35512 ft | 387 kts | 224° |
| 2026-05-05 05:19 | 58.40518 | 16.20395 | 35706 ft | 388 kts | 224° |
| 2026-05-05 05:19 | 58.38412 | 16.17155 | 35795 ft | 391 kts | 224° |
| 2026-05-05 05:20 | 58.34154 | 16.10620 | 35822 ft | 393 kts | 223° |
| 2026-05-05 05:20 | 58.29914 | 16.04140 | 35764 ft | 388 kts | 223° |
| 2026-05-05 05:21 | 58.25705 | 15.97722 | 35826 ft | 389 kts | 223° |
| 2026-05-05 05:21 | 58.21467 | 15.91275 | 35839 ft | 392 kts | 223° |
| 2026-05-05 05:22 | 58.17191 | 15.84795 | 35840 ft | 395 kts | 223° |
| 2026-05-05 05:22 | 58.12891 | 15.78298 | 35841 ft | 396 kts | 223° |
| 2026-05-05 05:23 | 58.08579 | 15.71806 | 35839 ft | 396 kts | 223° |
| 2026-05-05 05:23 | 58.04267 | 15.65332 | 35827 ft | 395 kts | 223° |
| 2026-05-05 05:24 | 57.99969 | 15.58899 | 35838 ft | 394 kts | 222° |
| 2026-05-05 05:24 | 57.95655 | 15.52636 | 35843 ft | 394 kts | 220° |
| 2026-05-05 05:25 | 57.91224 | 15.46554 | 35843 ft | 394 kts | 220° |
| 2026-05-05 05:25 | 57.86796 | 15.40509 | 35856 ft | 393 kts | 220° |
| 2026-05-05 05:26 | 57.82372 | 15.34452 | 35858 ft | 393 kts | 220° |
| 2026-05-05 05:26 | 57.77956 | 15.28405 | 35855 ft | 393 kts | 220° |
| 2026-05-05 05:27 | 57.73541 | 15.22370 | 35858 ft | 393 kts | 220° |
| 2026-05-05 05:27 | 57.66928 | 15.13363 | 35866 ft | 392 kts | 220° |
| 2026-05-05 05:28 | 57.62516 | 15.07378 | 35865 ft | 392 kts | 220° |
| 2026-05-05 05:28 | 57.58107 | 15.01413 | 35829 ft | 391 kts | 220° |
| 2026-05-05 05:29 | 57.53701 | 14.95472 | 35865 ft | 391 kts | 220° |
| 2026-05-05 05:29 | 57.49287 | 14.89538 | 35876 ft | 392 kts | 220° |
| 2026-05-05 05:30 | 57.44858 | 14.83601 | 35882 ft | 393 kts | 220° |
| 2026-05-05 05:30 | 57.40410 | 14.77657 | 35882 ft | 395 kts | 220° |
| 2026-05-05 05:31 | 57.35944 | 14.71709 | 35878 ft | 396 kts | 219° |
| 2026-05-05 05:31 | 57.31470 | 14.65767 | 35871 ft | 396 kts | 219° |
| 2026-05-05 05:32 | 57.26979 | 14.59822 | 35883 ft | 397 kts | 219° |
| 2026-05-05 05:32 | 57.22477 | 14.53880 | 35876 ft | 398 kts | 219° |
| 2026-05-05 05:33 | 57.17958 | 14.47933 | 35874 ft | 399 kts | 219° |
| 2026-05-05 05:33 | 57.13429 | 14.41993 | 35881 ft | 400 kts | 219° |
| 2026-05-05 05:34 | 57.08893 | 14.36061 | 35856 ft | 400 kts | 219° |
| 2026-05-05 05:34 | 57.04354 | 14.30143 | 35883 ft | 400 kts | 219° |
| 2026-05-05 05:35 | 56.99812 | 14.24239 | 35903 ft | 400 kts | 219° |
| 2026-05-05 05:35 | 56.95267 | 14.18350 | 35905 ft | 400 kts | 219° |
| 2026-05-05 05:36 | 56.90713 | 14.12466 | 35904 ft | 401 kts | 219° |
| 2026-05-05 05:36 | 56.86157 | 14.06600 | 35912 ft | 400 kts | 219° |
| 2026-05-05 05:37 | 56.81603 | 14.00752 | 35908 ft | 400 kts | 218° |
| 2026-05-05 05:37 | 56.77049 | 13.94922 | 35919 ft | 400 kts | 218° |
| 2026-05-05 05:38 | 56.72486 | 13.89098 | 35923 ft | 401 kts | 218° |
| 2026-05-05 05:38 | 56.67912 | 13.83276 | 35924 ft | 401 kts | 218° |
| 2026-05-05 05:39 | 56.63361 | 13.77504 | 35927 ft | 402 kts | 218° |
| 2026-05-05 05:39 | 56.58768 | 13.71694 | 35934 ft | 402 kts | 218° |
| 2026-05-05 05:40 | 56.54172 | 13.65898 | 35926 ft | 403 kts | 218° |
| 2026-05-05 05:40 | 56.49561 | 13.60102 | 35936 ft | 403 kts | 218° |
| 2026-05-05 05:41 | 56.44945 | 13.54316 | 35928 ft | 404 kts | 218° |
| 2026-05-05 05:41 | 56.40418 | 13.48338 | 35940 ft | 403 kts | 221° |
| 2026-05-05 05:42 | 56.35964 | 13.42184 | 35928 ft | 404 kts | 218° |
| 2026-05-05 05:42 | 56.31327 | 13.36450 | 35940 ft | 404 kts | 217° |
| 2026-05-05 05:43 | 56.26662 | 13.30770 | 35940 ft | 405 kts | 217° |
| 2026-05-05 05:43 | 56.22012 | 13.25064 | 35948 ft | 405 kts | 217° |
| 2026-05-05 05:44 | 56.17364 | 13.19336 | 35941 ft | 405 kts | 217° |
| 2026-05-05 05:44 | 56.12716 | 13.13611 | 35923 ft | 406 kts | 217° |
| 2026-05-05 05:45 | 56.08065 | 13.07897 | 35942 ft | 405 kts | 217° |
| 2026-05-05 05:45 | 56.03408 | 13.02193 | 35954 ft | 406 kts | 217° |
| 2026-05-05 05:46 | 55.98750 | 12.96505 | 35959 ft | 406 kts | 217° |
| 2026-05-05 05:46 | 55.94084 | 12.90824 | 35960 ft | 406 kts | 217° |
| 2026-05-05 05:47 | 55.89414 | 12.85156 | 35940 ft | 406 kts | 217° |
| 2026-05-05 05:47 | 55.84742 | 12.79502 | 35955 ft | 406 kts | 217° |
| 2026-05-05 05:48 | 55.80069 | 12.73862 | 35962 ft | 406 kts | 217° |
| 2026-05-05 05:48 | 55.75399 | 12.68244 | 35968 ft | 405 kts | 217° |
| 2026-05-05 05:49 | 55.70764 | 12.62684 | 35972 ft | 405 kts | 217° |
| 2026-05-05 05:49 | 55.66093 | 12.57096 | 35957 ft | 405 kts | 217° |
| 2026-05-05 05:50 | 55.61426 | 12.51531 | 35960 ft | 404 kts | 217° |
| 2026-05-05 05:50 | 55.56760 | 12.45981 | 35961 ft | 404 kts | 217° |
| 2026-05-05 05:51 | 55.52066 | 12.40416 | 35967 ft | 404 kts | 217° |
| 2026-05-05 05:51 | 55.47429 | 12.34934 | 35954 ft | 404 kts | 217° |
| 2026-05-05 05:52 | 55.42763 | 12.29433 | 35972 ft | 404 kts | 217° |
| 2026-05-05 05:52 | 55.38090 | 12.23941 | 35972 ft | 404 kts | 216° |
| 2026-05-05 05:53 | 55.33414 | 12.18460 | 35961 ft | 404 kts | 216° |
| 2026-05-05 05:53 | 55.28724 | 12.12978 | 35964 ft | 405 kts | 216° |
| 2026-05-05 05:54 | 55.24028 | 12.07506 | 35966 ft | 405 kts | 216° |
| 2026-05-05 05:54 | 55.19325 | 12.02041 | 35970 ft | 406 kts | 216° |
| 2026-05-05 05:55 | 55.16973 | 11.99315 | 35740 ft | 405 kts | 216° |
| 2026-05-05 05:55 | 55.14647 | 11.96624 | 35477 ft | 397 kts | 216° |
| 2026-05-05 05:55 | 55.12356 | 11.93978 | 35089 ft | 392 kts | 216° |
| 2026-05-05 05:55 | 55.10091 | 11.91365 | 34710 ft | 388 kts | 216° |
| 2026-05-05 05:56 | 55.07849 | 11.88779 | 34333 ft | 385 kts | 216° |
| 2026-05-05 05:56 | 55.05622 | 11.86216 | 33947 ft | 382 kts | 216° |
| 2026-05-05 05:56 | 55.03413 | 11.83676 | 33516 ft | 378 kts | 216° |
| 2026-05-05 05:56 | 55.01227 | 11.81165 | 33125 ft | 374 kts | 216° |
| 2026-05-05 05:57 | 54.99068 | 11.78690 | 32739 ft | 370 kts | 216° |
| 2026-05-05 05:57 | 54.96931 | 11.76244 | 32389 ft | 365 kts | 216° |
| 2026-05-05 05:57 | 54.94817 | 11.73826 | 31991 ft | 362 kts | 216° |
| 2026-05-05 05:57 | 54.92727 | 11.71438 | 31662 ft | 357 kts | 216° |
| 2026-05-05 05:58 | 54.90661 | 11.69081 | 31308 ft | 353 kts | 216° |
| 2026-05-05 05:58 | 54.88614 | 11.66748 | 30957 ft | 350 kts | 216° |
| 2026-05-05 05:58 | 54.86589 | 11.64443 | 30600 ft | 347 kts | 217° |
| 2026-05-05 05:58 | 54.84581 | 11.62161 | 30258 ft | 343 kts | 217° |
| 2026-05-05 05:59 | 54.82593 | 11.59903 | 29903 ft | 340 kts | 217° |
| 2026-05-05 05:59 | 54.80622 | 11.57669 | 29545 ft | 336 kts | 217° |
| 2026-05-05 05:59 | 54.78681 | 11.55469 | 29187 ft | 331 kts | 217° |
| 2026-05-05 05:59 | 54.76761 | 11.53298 | 28852 ft | 327 kts | 217° |
| 2026-05-05 06:00 | 54.74870 | 11.51161 | 28498 ft | 323 kts | 217° |
| 2026-05-05 06:00 | 54.72999 | 11.49049 | 28161 ft | 319 kts | 217° |
| 2026-05-05 06:00 | 54.71150 | 11.46964 | 27798 ft | 316 kts | 216° |
| 2026-05-05 06:00 | 54.69325 | 11.44907 | 27474 ft | 312 kts | 216° |
| 2026-05-05 06:01 | 54.67537 | 11.42894 | 27147 ft | 310 kts | 216° |
| 2026-05-05 06:01 | 54.65734 | 11.40866 | 26799 ft | 309 kts | 216° |
| 2026-05-05 06:01 | 54.63934 | 11.38845 | 26477 ft | 309 kts | 216° |
| 2026-05-05 06:01 | 54.62103 | 11.36788 | 26171 ft | 320 kts | 216° |
| 2026-05-05 06:02 | 54.60213 | 11.34667 | 25816 ft | 327 kts | 216° |
| 2026-05-05 06:02 | 54.58310 | 11.32537 | 25448 ft | 325 kts | 216° |
| 2026-05-05 06:02 | 54.56420 | 11.30426 | 25094 ft | 322 kts | 216° |
| 2026-05-05 06:02 | 54.54546 | 11.28335 | 24741 ft | 320 kts | 216° |
| 2026-05-05 06:03 | 54.52685 | 11.26262 | 24405 ft | 317 kts | 216° |
| 2026-05-05 06:03 | 54.50838 | 11.24205 | 24068 ft | 315 kts | 216° |
| 2026-05-05 06:03 | 54.49006 | 11.22167 | 23733 ft | 313 kts | 216° |
| 2026-05-05 06:03 | 54.47183 | 11.20140 | 23345 ft | 311 kts | 215° |
| 2026-05-05 06:04 | 54.45368 | 11.18124 | 22981 ft | 309 kts | 215° |
| 2026-05-05 06:04 | 54.43572 | 11.16133 | 22654 ft | 306 kts | 215° |
| 2026-05-05 06:04 | 54.41790 | 11.14159 | 22311 ft | 303 kts | 215° |
| 2026-05-05 06:04 | 54.40026 | 11.12206 | 21982 ft | 301 kts | 215° |
| 2026-05-05 06:05 | 54.38273 | 11.10268 | 21656 ft | 299 kts | 215° |
| 2026-05-05 06:05 | 54.36533 | 11.08346 | 21339 ft | 296 kts | 215° |
| 2026-05-05 06:05 | 54.35386 | 11.07080 | 21124 ft | 295 kts | 215° |
| 2026-05-05 06:05 | 54.33661 | 11.05178 | 20807 ft | 295 kts | 215° |
| 2026-05-05 06:06 | 54.31937 | 11.03277 | 20494 ft | 296 kts | 215° |
| 2026-05-05 06:06 | 54.30195 | 11.01358 | 20184 ft | 300 kts | 215° |
| 2026-05-05 06:06 | 54.28414 | 10.99397 | 19860 ft | 309 kts | 215° |
| 2026-05-05 06:06 | 54.26596 | 10.97399 | 19522 ft | 311 kts | 215° |
| 2026-05-05 06:07 | 54.24778 | 10.95406 | 19165 ft | 310 kts | 215° |
| 2026-05-05 06:07 | 54.22969 | 10.93424 | 18826 ft | 308 kts | 215° |
| 2026-05-05 06:07 | 54.21166 | 10.91452 | 18495 ft | 307 kts | 215° |
| 2026-05-05 06:07 | 54.19373 | 10.89492 | 18155 ft | 306 kts | 216° |
| 2026-05-05 06:08 | 54.17557 | 10.87509 | 17772 ft | 305 kts | 215° |
| 2026-05-05 06:08 | 54.15797 | 10.85588 | 17422 ft | 303 kts | 215° |
| 2026-05-05 06:08 | 54.14024 | 10.83656 | 17090 ft | 301 kts | 215° |
| 2026-05-05 06:08 | 54.12266 | 10.81741 | 16757 ft | 299 kts | 215° |
| 2026-05-05 06:09 | 54.10516 | 10.79837 | 16438 ft | 297 kts | 215° |
| 2026-05-05 06:09 | 54.08783 | 10.77953 | 16116 ft | 295 kts | 215° |
| 2026-05-05 06:09 | 54.07058 | 10.76080 | 15809 ft | 293 kts | 215° |
| 2026-05-05 06:09 | 54.05337 | 10.74213 | 15489 ft | 293 kts | 215° |
| 2026-05-05 06:10 | 54.03620 | 10.72352 | 15164 ft | 292 kts | 215° |
| 2026-05-05 06:10 | 54.01910 | 10.70500 | 14832 ft | 291 kts | 214° |
| 2026-05-05 06:10 | 54.00206 | 10.68657 | 14524 ft | 289 kts | 214° |
| 2026-05-05 06:10 | 53.98508 | 10.66823 | 14211 ft | 288 kts | 214° |
| 2026-05-05 06:11 | 53.96822 | 10.65002 | 13904 ft | 287 kts | 214° |
| 2026-05-05 06:11 | 53.95140 | 10.63189 | 13573 ft | 286 kts | 214° |
| 2026-05-05 06:11 | 53.93460 | 10.61378 | 13223 ft | 285 kts | 214° |
| 2026-05-05 06:11 | 53.91792 | 10.59583 | 12900 ft | 283 kts | 214° |
| 2026-05-05 06:12 | 53.90136 | 10.57802 | 12572 ft | 281 kts | 214° |
| 2026-05-05 06:12 | 53.88486 | 10.56030 | 12263 ft | 280 kts | 214° |
| 2026-05-05 06:12 | 53.86847 | 10.54270 | 11954 ft | 278 kts | 213° |
| 2026-05-05 06:12 | 53.85215 | 10.52520 | 11653 ft | 277 kts | 213° |
| 2026-05-05 06:13 | 53.83593 | 10.50782 | 11346 ft | 275 kts | 213° |
| 2026-05-05 06:13 | 53.81977 | 10.49053 | 11048 ft | 274 kts | 214° |
| 2026-05-05 06:13 | 53.80368 | 10.47331 | 10737 ft | 273 kts | 214° |
| 2026-05-05 06:13 | 53.78765 | 10.45618 | 10453 ft | 271 kts | 214° |
| 2026-05-05 06:14 | 53.77196 | 10.43941 | 10315 ft | 264 kts | 213° |
| 2026-05-05 06:14 | 53.75667 | 10.42312 | 10187 ft | 257 kts | 213° |
| 2026-05-05 06:14 | 53.74177 | 10.40725 | 10062 ft | 249 kts | 213° |
| 2026-05-05 06:14 | 53.72731 | 10.39187 | 9956 ft | 242 kts | 213° |
| 2026-05-05 06:15 | 53.71340 | 10.37664 | 9801 ft | 236 kts | 219° |
| 2026-05-05 06:15 | 53.70221 | 10.35608 | 9413 ft | 239 kts | 233° |
| 2026-05-05 06:15 | 53.69193 | 10.33409 | 9212 ft | 237 kts | 231° |
| 2026-05-05 06:15 | 53.68141 | 10.31254 | 9014 ft | 241 kts | 231° |
| 2026-05-05 06:16 | 53.67064 | 10.29059 | 8793 ft | 244 kts | 231° |